Time,TemperatureF,DewpointF,PressureIn,WindDirection,WindDirectionDegrees,WindSpeedMPH,WindSpeedGustMPH,Humidity,HourlyPrecipIn,Conditions,Clouds,dailyrainin,SolarRadiationWatts/m^2,SoftwareType,DateUTC
2013-04-26 00:21:00,51.0,19.0,-100.00,NE,46,5.0,10.0,28,0.00,,,0.00,0.000000,,2013-04-26 06:21:00,
2013-04-26 00:32:00,51.0,19.0,-100.00,NE,46,5.0,10.0,28,0.00,,,0.00,0.000000,,2013-04-26 06:32:00,
2013-04-26 00:42:00,51.0,19.0,-100.00,NE,46,5.0,10.0,28,0.00,,,0.00,0.000000,,2013-04-26 06:42:00,
2013-04-26 00:52:00,51.0,19.0,-100.00,NE,46,5.0,10.0,28,0.00,,,0.00,0.000000,,2013-04-26 06:52:00,
2013-04-26 01:22:00,49.0,19.0,-100.00,North,8,3.0,9.0,30,0.00,,,0.00,0.000000,,2013-04-26 07:22:00,
2013-04-26 01:31:00,49.0,19.0,-100.00,North,8,3.0,9.0,30,0.00,,,0.00,0.000000,,2013-04-26 07:31:00,
2013-04-26 01:42:00,49.0,19.0,-100.00,North,8,3.0,9.0,30,0.00,,,0.00,0.000000,,2013-04-26 07:42:00,
2013-04-26 01:52:00,49.0,19.0,-100.00,North,8,3.0,9.0,30,0.00,,,0.00,0.000000,,2013-04-26 07:52:00,
2013-04-26 02:21:00,49.0,19.0,-100.00,NE,37,4.0,7.0,30,0.00,,,0.00,0.000000,,2013-04-26 08:21:00,
2013-04-26 02:32:00,49.0,19.0,-100.00,NE,37,4.0,7.0,30,0.00,,,0.00,0.000000,,2013-04-26 08:32:00,
2013-04-26 02:42:00,49.0,19.0,-100.00,NE,37,4.0,7.0,30,0.00,,,0.00,0.000000,,2013-04-26 08:42:00,
2013-04-26 02:52:00,49.0,19.0,-100.00,NE,37,4.0,7.0,30,0.00,,,0.00,0.000000,,2013-04-26 08:52:00,
2013-04-26 03:21:00,44.0,19.0,-100.00,NNW,348,2.0,6.0,37,0.00,,,0.00,0.000000,,2013-04-26 09:21:00,
2013-04-26 03:33:00,44.0,19.0,-100.00,NNW,348,2.0,6.0,37,0.00,,,0.00,0.000000,,2013-04-26 09:33:00,
2013-04-26 03:42:00,44.0,19.0,-100.00,NNW,348,2.0,6.0,37,0.00,,,0.00,0.000000,,2013-04-26 09:42:00,
2013-04-26 03:53:00,44.0,19.0,-100.00,NNW,348,2.0,6.0,37,0.00,,,0.00,0.000000,,2013-04-26 09:53:00,
2013-04-26 04:23:00,41.0,18.0,-100.00,NNE,21,3.0,8.0,39,0.00,,,0.00,0.000000,,2013-04-26 10:23:00,
2013-04-26 04:33:00,41.0,18.0,-100.00,NNE,21,3.0,8.0,39,0.00,,,0.00,0.000000,,2013-04-26 10:33:00,
2013-04-26 04:42:00,41.0,18.0,-100.00,NNE,21,3.0,8.0,39,0.00,,,0.00,0.000000,,2013-04-26 10:42:00,
2013-04-26 04:52:00,41.0,18.0,-100.00,NNE,21,3.0,8.0,39,0.00,,,0.00,0.000000,,2013-04-26 10:52:00,
2013-04-26 05:22:00,42.0,18.0,-100.00,NNE,25,1.0,5.0,37,0.00,,,0.00,0.000000,,2013-04-26 11:22:00,
2013-04-26 05:32:00,42.0,18.0,-100.00,NNE,25,1.0,5.0,37,0.00,,,0.00,0.000000,,2013-04-26 11:32:00,
2013-04-26 05:42:00,42.0,18.0,-100.00,NNE,25,1.0,5.0,37,0.00,,,0.00,0.000000,,2013-04-26 11:42:00,
2013-04-26 05:52:00,42.0,18.0,-100.00,NNE,25,1.0,5.0,37,0.00,,,0.00,0.000000,,2013-04-26 11:52:00,
2013-04-26 06:21:00,40.0,19.0,-100.00,NE,35,3.0,5.0,42,0.00,,,-99.99,1.000000,,2013-04-26 12:21:00,
2013-04-26 06:32:00,40.0,19.0,-100.00,NE,35,3.0,5.0,42,0.00,,,-99.99,1.000000,,2013-04-26 12:32:00,
2013-04-26 06:42:00,40.0,19.0,-100.00,NE,35,3.0,5.0,42,0.00,,,-99.99,1.000000,,2013-04-26 12:42:00,
2013-04-26 06:52:00,40.0,19.0,-100.00,NE,35,3.0,5.0,42,0.00,,,-99.99,1.000000,,2013-04-26 12:52:00,
2013-04-26 07:21:00,45.0,21.0,-100.00,North,359,5.0,7.0,38,0.00,,,0.00,53.000000,,2013-04-26 13:21:00,
2013-04-26 07:32:00,45.0,21.0,-100.00,North,359,5.0,7.0,38,0.00,,,0.00,53.000000,,2013-04-26 13:32:00,
2013-04-26 07:42:00,45.0,21.0,-100.00,North,359,5.0,7.0,38,0.00,,,0.00,53.000000,,2013-04-26 13:42:00,
2013-04-26 07:52:00,45.0,21.0,-100.00,North,359,5.0,7.0,38,0.00,,,0.00,53.000000,,2013-04-26 13:52:00,
2013-04-26 08:21:00,52.0,23.0,-100.00,North,360,4.0,8.0,32,0.00,,,0.00,231.000000,,2013-04-26 14:21:00,
2013-04-26 08:32:00,52.0,23.0,-100.00,North,360,4.0,8.0,32,0.00,,,0.00,231.000000,,2013-04-26 14:32:00,
2013-04-26 08:42:00,52.0,23.0,-100.00,North,360,4.0,8.0,32,0.00,,,0.00,231.000000,,2013-04-26 14:42:00,
2013-04-26 08:51:00,52.0,23.0,-100.00,North,360,4.0,8.0,32,0.00,,,0.00,231.000000,,2013-04-26 14:51:00,
2013-04-26 09:21:00,57.0,24.0,-100.00,North,349,4.0,10.0,28,0.00,,,0.00,436.000000,,2013-04-26 15:21:00,
2013-04-26 09:33:00,57.0,24.0,-100.00,North,349,4.0,10.0,28,0.00,,,0.00,436.000000,,2013-04-26 15:33:00,
2013-04-26 09:43:00,57.0,24.0,-100.00,North,349,4.0,10.0,28,0.00,,,0.00,436.000000,,2013-04-26 15:43:00,
2013-04-26 09:53:00,57.0,24.0,-100.00,North,349,4.0,10.0,28,0.00,,,0.00,436.000000,,2013-04-26 15:53:00,
2013-04-26 10:23:00,61.0,26.0,-100.00,WNW,298,4.0,9.0,26,0.00,,,0.00,628.000000,,2013-04-26 16:23:00,
2013-04-26 10:33:00,61.0,26.0,-100.00,WNW,298,4.0,9.0,26,0.00,,,0.00,628.000000,,2013-04-26 16:33:00,
2013-04-26 10:42:00,61.0,26.0,-100.00,WNW,298,4.0,9.0,26,0.00,,,0.00,628.000000,,2013-04-26 16:42:00,
2013-04-26 10:52:00,61.0,26.0,-100.00,WNW,298,4.0,9.0,26,0.00,,,0.00,628.000000,,2013-04-26 16:52:00,
2013-04-26 11:22:00,63.0,21.0,-100.00,SW,232,5.0,10.0,20,0.00,,,0.00,787.000000,,2013-04-26 17:22:00,
2013-04-26 11:32:00,63.0,21.0,-100.00,SW,232,5.0,10.0,20,0.00,,,0.00,787.000000,,2013-04-26 17:32:00,
2013-04-26 11:42:00,63.0,21.0,-100.00,SW,232,5.0,10.0,20,0.00,,,0.00,787.000000,,2013-04-26 17:42:00,
2013-04-26 11:51:00,63.0,21.0,-100.00,SW,232,5.0,10.0,20,0.00,,,0.00,787.000000,,2013-04-26 17:51:00,
2013-04-26 12:22:00,66.0,23.0,-100.00,WNW,284,5.0,12.0,19,0.00,,,0.00,898.000000,,2013-04-26 18:22:00,
2013-04-26 12:33:00,66.0,23.0,-100.00,WNW,284,5.0,12.0,19,0.00,,,0.00,898.000000,,2013-04-26 18:33:00,
2013-04-26 12:42:00,66.0,23.0,-100.00,WNW,284,5.0,12.0,19,0.00,,,0.00,898.000000,,2013-04-26 18:42:00,
2013-04-26 12:52:00,66.0,23.0,-100.00,WNW,284,5.0,12.0,19,0.00,,,0.00,898.000000,,2013-04-26 18:52:00,
2013-04-26 13:22:00,66.0,21.0,-100.00,West,263,6.0,14.0,18,0.00,,,0.00,956.000000,,2013-04-26 19:22:00,
2013-04-26 13:32:00,66.0,21.0,-100.00,West,263,6.0,14.0,18,0.00,,,0.00,956.000000,,2013-04-26 19:32:00,
2013-04-26 13:41:00,66.0,21.0,-100.00,West,263,6.0,14.0,18,0.00,,,0.00,956.000000,,2013-04-26 19:41:00,
2013-04-26 13:52:00,66.0,21.0,-100.00,West,263,6.0,14.0,18,0.00,,,0.00,956.000000,,2013-04-26 19:52:00,
2013-04-26 14:21:00,69.0,22.0,-100.00,WNW,300,6.0,16.0,17,0.00,,,0.00,948.000000,,2013-04-26 20:21:00,
2013-04-26 14:32:00,69.0,22.0,-100.00,WNW,300,6.0,16.0,17,0.00,,,0.00,948.000000,,2013-04-26 20:32:00,
2013-04-26 14:42:00,69.0,22.0,-100.00,WNW,300,6.0,16.0,17,0.00,,,0.00,948.000000,,2013-04-26 20:42:00,
2013-04-26 14:52:00,69.0,22.0,-100.00,WNW,300,6.0,16.0,17,0.00,,,0.00,948.000000,,2013-04-26 20:52:00,
2013-04-26 15:22:00,66.0,20.0,-100.00,North,351,4.0,16.0,17,0.00,,,0.00,719.000000,,2013-04-26 21:22:00,
2013-04-26 15:33:00,66.0,20.0,-100.00,North,351,4.0,16.0,17,0.00,,,0.00,719.000000,,2013-04-26 21:33:00,
2013-04-26 15:42:00,66.0,20.0,-100.00,North,351,4.0,16.0,17,0.00,,,0.00,719.000000,,2013-04-26 21:42:00,
2013-04-26 15:52:00,66.0,20.0,-100.00,North,351,4.0,16.0,17,0.00,,,0.00,719.000000,,2013-04-26 21:52:00,
2013-04-26 16:23:00,69.0,21.0,-100.00,WSW,240,8.0,13.0,16,0.00,,,0.00,791.000000,,2013-04-26 22:23:00,
2013-04-26 16:33:00,69.0,21.0,-100.00,WSW,240,8.0,13.0,16,0.00,,,0.00,791.000000,,2013-04-26 22:33:00,
2013-04-26 16:42:00,69.0,21.0,-100.00,WSW,240,8.0,13.0,16,0.00,,,0.00,791.000000,,2013-04-26 22:42:00,
2013-04-26 16:52:00,69.0,21.0,-100.00,WSW,240,8.0,13.0,16,0.00,,,0.00,791.000000,,2013-04-26 22:52:00,
2013-04-26 17:21:00,69.0,21.0,-100.00,NNE,17,5.0,14.0,16,0.00,,,0.00,608.000000,,2013-04-26 23:21:00,
2013-04-26 17:32:00,69.0,21.0,-100.00,NNE,17,5.0,14.0,16,0.00,,,0.00,608.000000,,2013-04-26 23:32:00,
2013-04-26 17:42:00,69.0,21.0,-100.00,NNE,17,5.0,14.0,16,0.00,,,0.00,608.000000,,2013-04-26 23:42:00,
2013-04-26 17:52:00,69.0,21.0,-100.00,NNE,17,5.0,14.0,16,0.00,,,0.00,608.000000,,2013-04-26 23:52:00,
2013-04-26 18:21:00,68.0,22.0,-100.00,SW,225,6.0,11.0,17,0.00,,,0.00,404.000000,,2013-04-27 00:21:00,
2013-04-26 18:32:00,68.0,22.0,-100.00,SW,225,6.0,11.0,17,0.00,,,0.00,404.000000,,2013-04-27 00:32:00,
2013-04-26 18:42:00,68.0,22.0,-100.00,SW,225,6.0,11.0,17,0.00,,,0.00,404.000000,,2013-04-27 00:42:00,
2013-04-26 18:51:00,68.0,22.0,-100.00,SW,225,6.0,11.0,17,0.00,,,0.00,404.000000,,2013-04-27 00:51:00,
2013-04-26 19:21:00,67.0,22.0,-100.00,ESE,114,1.0,9.0,18,0.00,,,0.00,211.000000,,2013-04-27 01:21:00,
2013-04-26 19:32:00,67.0,22.0,-100.00,ESE,114,1.0,9.0,18,0.00,,,0.00,211.000000,,2013-04-27 01:32:00,
2013-04-26 19:42:00,67.0,22.0,-100.00,ESE,114,1.0,9.0,18,0.00,,,0.00,211.000000,,2013-04-27 01:42:00,
2013-04-26 19:52:00,67.0,22.0,-100.00,ESE,114,1.0,9.0,18,0.00,,,0.00,211.000000,,2013-04-27 01:52:00,
2013-04-26 20:22:00,62.0,19.0,-100.00,ESE,108,0.0,4.0,19,0.00,,,0.00,42.000000,,2013-04-27 02:22:00,
2013-04-26 20:32:00,62.0,19.0,-100.00,ESE,108,0.0,4.0,19,0.00,,,0.00,42.000000,,2013-04-27 02:32:00,
2013-04-26 20:42:00,62.0,19.0,-100.00,ESE,108,0.0,4.0,19,0.00,,,0.00,42.000000,,2013-04-27 02:42:00,
2013-04-26 20:52:00,62.0,19.0,-100.00,ESE,108,0.0,4.0,19,0.00,,,0.00,42.000000,,2013-04-27 02:52:00,
2013-04-26 21:22:00,57.0,20.0,-100.00,SW,224,0.0,4.0,23,0.00,,,0.00,1.000000,,2013-04-27 03:22:00,
2013-04-26 21:33:00,57.0,20.0,-100.00,SW,224,0.0,4.0,23,0.00,,,0.00,1.000000,,2013-04-27 03:33:00,
2013-04-26 21:43:00,57.0,20.0,-100.00,SW,224,0.0,4.0,23,0.00,,,0.00,1.000000,,2013-04-27 03:43:00,
2013-04-26 21:53:00,57.0,20.0,-100.00,SW,224,0.0,4.0,23,0.00,,,0.00,1.000000,,2013-04-27 03:53:00,
2013-04-26 22:23:00,58.0,21.0,-100.00,South,180,2.0,4.0,24,0.00,,,0.00,0.000000,,2013-04-27 04:23:00,
2013-04-26 22:33:00,58.0,21.0,-100.00,South,180,2.0,4.0,24,0.00,,,0.00,0.000000,,2013-04-27 04:33:00,
2013-04-26 22:43:00,58.0,21.0,-100.00,South,180,2.0,4.0,24,0.00,,,0.00,0.000000,,2013-04-27 04:43:00,
2013-04-26 22:52:00,58.0,21.0,-100.00,South,180,2.0,4.0,24,0.00,,,0.00,0.000000,,2013-04-27 04:52:00,
2013-04-26 23:22:00,56.0,22.0,-100.00,South,189,3.0,8.0,26,0.00,,,0.00,0.000000,,2013-04-27 05:22:00,
2013-04-26 23:32:00,56.0,22.0,-100.00,South,189,3.0,8.0,26,0.00,,,0.00,0.000000,,2013-04-27 05:32:00,
2013-04-26 23:42:00,56.0,22.0,-100.00,South,189,3.0,8.0,26,0.00,,,0.00,0.000000,,2013-04-27 05:42:00,
2013-04-26 23:52:00,56.0,22.0,-100.00,South,189,3.0,8.0,26,0.00,,,0.00,0.000000,,2013-04-27 05:52:00,